createdAt,value
2019-01-21T00:00:57.732Z,68.04
2019-01-21T00:03:25.574Z,68.27
2019-01-21T00:05:52.527Z,68.36
2019-01-21T00:08:19.484Z,68.41
2019-01-21T00:10:46.440Z,68.35
2019-01-21T00:13:13.378Z,68.25
2019-01-21T00:15:40.371Z,68.41
2019-01-21T00:18:07.507Z,68.33
2019-01-21T00:20:34.489Z,68.45
2019-01-21T00:23:02.495Z,68.55
2019-01-21T00:25:28.495Z,68.59
2019-01-21T00:27:55.450Z,68.38
2019-01-21T00:30:22.395Z,68.45
2019-01-21T00:32:49.360Z,68.55
2019-01-21T00:35:16.346Z,68.69
2019-01-21T00:37:43.306Z,68.91
2019-01-21T00:40:10.255Z,68.88
2019-01-21T00:42:37.221Z,68.84
2019-01-21T00:45:04.164Z,68.84
2019-01-21T00:47:31.167Z,68.80
2019-01-21T00:49:58.129Z,68.90
2019-01-21T00:52:25.072Z,68.94
2019-01-21T00:54:52.028Z,68.91
2019-01-21T00:57:18.974Z,68.82
2019-01-21T00:59:46.004Z,68.75
2019-01-21T01:02:13.068Z,68.66
2019-01-21T01:04:40.018Z,68.53
2019-01-21T01:07:06.976Z,68.65
2019-01-21T01:09:33.924Z,68.71
2019-01-21T01:12:01.039Z,68.71
2019-01-21T01:14:27.991Z,68.63
2019-01-21T01:16:55.019Z,68.67
2019-01-21T01:19:21.988Z,68.55
2019-01-21T01:21:49.119Z,68.44
2019-01-21T01:24:16.079Z,68.64
2019-01-21T01:26:43.202Z,68.86
2019-01-21T01:29:10.167Z,69.12
2019-01-21T01:31:37.127Z,69.24
2019-01-21T01:34:04.071Z,69.18
2019-01-21T01:36:31.119Z,69.10
2019-01-21T01:38:58.060Z,68.85
2019-01-21T01:41:25.018Z,68.92
2019-01-21T01:43:51.969Z,69.18
2019-01-21T01:46:18.993Z,68.98
2019-01-21T01:48:46.634Z,68.78
2019-01-21T01:51:12.901Z,68.62
2019-01-21T01:53:39.875Z,68.71
2019-01-21T01:56:06.785Z,69.00
2019-01-21T01:58:33.730Z,69.23
2019-01-21T02:01:00.780Z,69.18
2019-01-21T02:03:27.718Z,69.10
2019-01-21T02:05:54.668Z,69.44
2019-01-21T02:08:21.619Z,69.55
2019-01-21T02:10:48.595Z,69.49
2019-01-21T02:13:15.538Z,69.54
2019-01-21T02:15:42.479Z,69.66
2019-01-21T02:18:09.473Z,69.80
2019-01-21T02:20:36.429Z,69.98
2019-01-21T02:23:03.891Z,70.08
2019-01-21T02:25:32.587Z,70.14
2019-01-21T02:27:59.543Z,70.42
2019-01-21T02:30:26.662Z,70.55
2019-01-21T02:32:58.427Z,70.53
2019-01-21T02:35:26.175Z,70.76
2019-01-21T02:40:58.757Z,70.04
2019-01-21T02:43:26.341Z,70.36
2019-01-21T02:46:08.255Z,70.60
2019-01-21T02:48:38.058Z,70.87
2019-01-21T02:51:06.704Z,71.06
2019-01-21T02:53:35.834Z,71.21
2019-01-21T02:56:06.742Z,71.28
2019-01-21T02:58:39.762Z,71.41
2019-01-21T03:01:09.614Z,71.50
2019-01-21T03:03:37.199Z,71.60
2019-01-21T03:06:19.131Z,71.63
2019-01-21T03:08:47.859Z,71.66
2019-01-21T03:11:26.666Z,71.84
2019-01-21T03:13:58.501Z,71.73
2019-01-21T03:16:25.450Z,71.87
2019-01-21T03:18:52.390Z,71.85
2019-01-21T03:21:23.147Z,72.00
2019-01-21T03:23:53.150Z,71.87
2019-01-21T03:26:23.762Z,71.97
2019-01-21T03:28:51.655Z,72.08
2019-01-21T03:31:33.505Z,72.10
2019-01-21T03:34:04.232Z,71.98
2019-01-21T03:36:32.851Z,71.97
2019-01-21T03:39:02.769Z,72.20
2019-01-21T03:41:31.638Z,72.21
2019-01-21T03:43:59.370Z,72.18
2019-01-21T03:46:42.158Z,72.11
2019-01-21T03:49:14.892Z,71.97
2019-01-21T03:51:57.623Z,71.97
2019-01-21T03:54:24.575Z,71.99
2019-01-21T03:56:51.537Z,71.97
2019-01-21T03:59:21.257Z,71.99
2019-01-21T04:01:48.211Z,72.13
2019-01-21T04:07:10.107Z,71.28
2019-01-21T04:09:37.808Z,71.46
2019-01-21T04:12:20.427Z,71.72
2019-01-21T04:15:04.177Z,71.89
2019-01-21T04:17:36.901Z,72.19
2019-01-21T04:20:09.716Z,72.45
2019-01-21T04:22:40.495Z,72.68
2019-01-21T04:25:08.270Z,72.95
2019-01-21T04:27:39.079Z,73.04
2019-01-21T04:30:17.053Z,73.06
2019-01-21T04:32:44.029Z,73.11
2019-01-21T04:35:15.781Z,73.13
2019-01-21T04:37:43.552Z,73.16
2019-01-21T04:40:12.307Z,73.23
2019-01-21T04:42:43.001Z,73.34
2019-01-21T04:45:14.711Z,73.28
2019-01-21T04:47:56.662Z,73.28
2019-01-21T04:50:28.459Z,73.28
2019-01-21T04:52:58.495Z,73.23
2019-01-21T04:55:28.377Z,73.18
2019-01-21T04:57:58.113Z,73.14
2019-01-21T05:00:26.891Z,73.54
2019-01-21T05:02:53.840Z,73.81
2019-01-21T05:05:32.695Z,74.08
2019-01-21T05:08:02.503Z,74.17
2019-01-21T05:10:34.122Z,74.18
2019-01-21T05:13:18.831Z,74.03
2019-01-21T05:15:48.697Z,73.74
2019-01-21T05:18:30.532Z,73.86
2019-01-21T05:21:03.325Z,73.80
2019-01-21T05:23:33.264Z,73.73
2019-01-21T05:26:01.980Z,73.70
2019-01-21T05:28:30.703Z,73.81
2019-01-21T05:31:13.615Z,73.80
2019-01-21T05:33:46.376Z,73.60
2019-01-21T05:36:19.266Z,73.71
2019-01-21T05:39:02.078Z,73.74
2019-01-21T05:41:33.001Z,73.85
2019-01-21T05:44:14.825Z,73.96
2019-01-21T05:46:46.574Z,73.80
2019-01-21T05:49:19.429Z,73.75
2019-01-21T05:51:56.266Z,73.68
2019-01-21T05:54:24.248Z,73.53
2019-01-21T05:56:52.100Z,73.53
2019-01-21T05:59:20.962Z,73.49
2019-01-21T06:01:53.796Z,73.51
2019-01-21T06:04:21.600Z,73.35
2019-01-21T06:06:51.533Z,73.18
2019-01-21T06:09:21.235Z,73.11
2019-01-21T06:11:50.854Z,73.05
2019-01-21T06:14:23.850Z,73.30
2019-01-21T06:17:06.610Z,73.97
2019-01-21T06:19:39.549Z,74.57
2019-01-21T06:22:09.637Z,74.87
2019-01-21T06:24:48.411Z,74.80
2019-01-21T06:30:14.199Z,74.48
2019-01-21T06:32:43.847Z,74.58
2019-01-21T06:35:12.607Z,74.57
2019-01-21T06:37:40.397Z,74.35
2019-01-21T06:40:09.442Z,74.43
2019-01-21T06:42:52.183Z,74.36
2019-01-21T06:45:21.997Z,74.24
2019-01-21T06:48:06.746Z,74.26
2019-01-21T06:50:36.587Z,73.90
2019-01-21T06:53:14.496Z,74.21
2019-01-21T06:55:42.130Z,73.92
2019-01-21T06:58:09.283Z,73.95
2019-01-21T07:00:42.070Z,73.94
2019-01-21T07:03:11.930Z,73.74
2019-01-21T07:05:44.582Z,73.72
2019-01-21T07:08:17.498Z,73.48
2019-01-21T07:10:44.544Z,73.77
2019-01-21T07:13:17.457Z,74.01
2019-01-21T07:15:51.380Z,74.19
2019-01-21T07:18:26.020Z,74.04
2019-01-21T07:21:09.845Z,73.88
2019-01-21T07:23:49.566Z,73.63
2019-01-21T07:26:19.377Z,73.61
2019-01-21T07:28:47.243Z,73.61
2019-01-21T07:31:14.189Z,73.28
2019-01-21T07:33:58.831Z,72.88
2019-01-21T07:36:31.512Z,72.50
2019-01-21T07:39:13.345Z,72.61
2019-01-21T07:41:56.020Z,72.44
2019-01-21T07:44:24.903Z,72.01
2019-01-21T07:47:07.563Z,71.89
2019-01-21T07:49:35.447Z,71.67
2019-01-21T07:52:12.361Z,71.40
2019-01-21T07:54:45.144Z,71.36
2019-01-21T07:57:13.057Z,71.26
2019-01-21T07:59:45.947Z,70.99
2019-01-21T08:02:15.590Z,70.79
2019-01-21T08:04:44.088Z,70.35
2019-01-21T08:07:15.488Z,70.28
2019-01-21T08:09:46.379Z,69.40
2019-01-21T08:12:29.126Z,68.79
2019-01-21T08:14:56.908Z,67.76
2019-01-21T08:17:34.749Z,67.29
2019-01-21T08:20:02.639Z,66.33
2019-01-21T08:22:31.560Z,65.64
2019-01-21T08:25:14.381Z,64.95
2019-01-21T08:27:56.344Z,63.80
2019-01-21T08:30:25.979Z,63.38
2019-01-21T08:33:08.697Z,63.21
2019-01-21T08:35:49.683Z,62.37
2019-01-21T08:38:31.532Z,60.59
2019-01-21T08:41:02.176Z,60.57
2019-01-21T08:43:35.019Z,61.29
2019-01-21T08:46:07.875Z,62.58
2019-01-21T08:48:54.894Z,63.18
2019-01-21T08:51:24.636Z,63.17
2019-01-21T08:53:53.426Z,63.19
2019-01-21T08:56:35.360Z,62.65
2019-01-21T08:59:03.082Z,62.02
2019-01-21T09:01:35.966Z,60.76
2019-01-21T09:04:22.836Z,61.03
2019-01-21T09:07:00.552Z,61.52
2019-01-21T09:09:27.450Z,61.46
2019-01-21T09:11:56.358Z,61.62
2019-01-21T09:14:24.079Z,61.98
2019-01-21T09:16:56.902Z,61.87
2019-01-21T09:19:27.728Z,61.37
2019-01-21T09:21:56.542Z,61.08
2019-01-21T09:24:30.400Z,60.61
2019-01-21T09:26:59.183Z,61.16
2019-01-21T09:29:43.093Z,60.76
2019-01-21T09:32:10.994Z,60.04
2019-01-21T09:34:40.895Z,59.27
2019-01-21T09:37:07.850Z,57.35
2019-01-21T09:39:34.838Z,54.72
2019-01-21T09:42:03.775Z,55.45
2019-01-21T09:44:33.511Z,56.65
2019-01-21T09:47:00.149Z,56.03
2019-01-21T09:49:26.801Z,53.00
2019-01-21T09:51:53.747Z,51.88
2019-01-21T09:54:20.678Z,53.85
2019-01-21T09:56:47.740Z,55.96
2019-01-21T09:59:14.686Z,57.39
2019-01-21T10:01:41.648Z,56.02
2019-01-21T10:04:08.601Z,51.31
2019-01-21T10:06:36.516Z,48.56
2019-01-21T10:09:06.117Z,46.03
2019-01-21T10:11:38.984Z,44.35
2019-01-21T10:14:12.119Z,42.59
2019-01-21T10:16:53.541Z,43.34
2019-01-21T10:19:30.438Z,42.13
2019-01-21T10:22:03.149Z,41.98
2019-01-21T10:24:31.782Z,44.00
2019-01-21T10:26:59.531Z,46.47
2019-01-21T10:29:36.501Z,48.20
2019-01-21T10:32:19.149Z,47.75
2019-01-21T10:34:47.138Z,45.11
2019-01-21T10:37:30.869Z,43.76
2019-01-21T10:40:12.700Z,42.14
2019-01-21T10:42:41.449Z,40.86
2019-01-21T10:45:09.169Z,41.92
2019-01-21T10:47:38.063Z,42.95
2019-01-21T10:50:18.957Z,45.31
2019-01-21T10:55:40.550Z,46.14
2019-01-21T10:58:08.452Z,45.17
2019-01-21T11:00:35.413Z,45.14
2019-01-21T11:03:12.164Z,44.53
2019-01-21T11:05:44.115Z,44.73
2019-01-21T11:08:13.890Z,42.92
2019-01-21T11:10:45.869Z,41.23
2019-01-21T11:13:13.816Z,40.34
2019-01-21T11:15:44.644Z,40.99
2019-01-21T11:18:15.472Z,41.15
2019-01-21T11:20:42.567Z,41.72
2019-01-21T11:23:12.465Z,42.48
2019-01-21T11:25:55.299Z,41.34
2019-01-21T11:28:23.052Z,39.45
2019-01-21T11:30:53.887Z,38.24
2019-01-21T11:33:25.664Z,37.41
2019-01-21T11:36:10.409Z,38.04
2019-01-21T11:38:37.402Z,38.52
2019-01-21T11:41:08.088Z,38.06
2019-01-21T11:43:40.063Z,37.00
2019-01-21T11:46:16.995Z,36.67
2019-01-21T11:48:44.751Z,35.66
2019-01-21T11:51:26.664Z,35.20
2019-01-21T11:54:08.480Z,35.20
2019-01-21T11:56:37.446Z,34.99
2019-01-21T11:59:04.631Z,34.74
2019-01-21T12:01:32.122Z,35.22
2019-01-21T12:04:04.275Z,35.17
2019-01-21T12:06:31.291Z,35.47
2019-01-21T12:08:59.118Z,33.71
2019-01-21T12:11:26.094Z,32.93
2019-01-21T12:13:58.885Z,32.61
2019-01-21T12:16:40.883Z,31.43
2019-01-21T12:19:07.837Z,31.28
2019-01-21T12:21:49.727Z,31.32
2019-01-21T12:24:16.686Z,32.88
2019-01-21T12:26:47.736Z,33.91
2019-01-21T12:29:19.675Z,34.56
2019-01-21T12:32:02.574Z,34.74
2019-01-21T12:34:41.089Z,33.91
2019-01-21T12:37:09.846Z,33.18
2019-01-21T12:39:42.654Z,31.83
2019-01-21T12:42:11.699Z,30.67
2019-01-21T12:44:44.458Z,31.26
2019-01-21T12:47:11.576Z,30.90
2019-01-21T12:49:39.510Z,30.56
2019-01-21T12:52:06.491Z,29.96
2019-01-21T12:54:35.309Z,29.61
2019-01-21T12:57:18.066Z,29.47
2019-01-21T12:59:45.890Z,28.85
2019-01-21T13:02:13.620Z,28.55
2019-01-21T13:04:40.701Z,27.80
2019-01-21T13:07:08.363Z,27.92
2019-01-21T13:09:51.133Z,28.49
2019-01-21T13:12:18.207Z,27.59
2019-01-21T13:14:46.123Z,28.06
2019-01-21T13:17:13.146Z,27.61
2019-01-21T13:19:46.127Z,26.66
2019-01-21T13:22:15.031Z,26.85
2019-01-21T13:24:47.771Z,27.04
2019-01-21T13:27:24.887Z,26.74
2019-01-21T13:29:51.849Z,27.06
2019-01-21T13:32:28.939Z,26.79
2019-01-21T13:34:59.682Z,26.40
2019-01-21T13:37:44.568Z,25.77
2019-01-21T13:40:16.358Z,25.03
2019-01-21T13:42:46.037Z,25.33
2019-01-21T13:45:27.885Z,24.70
2019-01-21T13:47:54.884Z,24.64
2019-01-21T13:50:22.463Z,24.90
2019-01-21T13:52:55.218Z,24.68
2019-01-21T13:55:23.066Z,24.92
2019-01-21T13:58:07.197Z,24.37
2019-01-21T14:00:37.099Z,24.92
2019-01-21T14:03:06.988Z,24.69
2019-01-21T14:05:38.883Z,25.17
2019-01-21T14:08:05.835Z,25.65
2019-01-21T14:10:47.770Z,24.38
2019-01-21T14:13:16.559Z,24.30
2019-01-21T14:15:44.307Z,24.29
2019-01-21T14:18:15.142Z,23.93
2019-01-21T14:20:51.059Z,23.94
2019-01-21T14:23:18.046Z,23.48
2019-01-21T14:25:47.835Z,23.32
2019-01-21T14:28:22.037Z,23.52
2019-01-21T14:30:54.801Z,23.83
2019-01-21T14:33:26.725Z,24.39
2019-01-21T14:36:08.685Z,23.65
2019-01-21T14:38:41.533Z,23.24
2019-01-21T14:41:08.531Z,23.25
2019-01-21T14:43:37.298Z,23.63
2019-01-21T14:46:12.010Z,24.01
2019-01-21T14:48:39.066Z,25.04
2019-01-21T14:51:06.048Z,27.26
2019-01-21T14:53:33.814Z,29.78
2019-01-21T14:56:16.447Z,31.22
2019-01-21T14:58:45.432Z,34.53
2019-01-21T15:01:16.083Z,34.28
2019-01-21T15:03:44.999Z,32.92
2019-01-21T15:06:12.099Z,31.61
2019-01-21T15:08:39.087Z,30.21
2019-01-21T15:11:08.468Z,29.16
2019-01-21T15:13:36.084Z,28.58
2019-01-21T15:16:09.894Z,28.84
2019-01-21T15:18:40.729Z,30.45
2019-01-21T15:21:10.301Z,34.24
2019-01-21T15:23:40.322Z,37.68
2019-01-21T15:26:13.061Z,39.81
2019-01-21T15:28:41.000Z,40.89
2019-01-21T15:31:24.535Z,42.71
2019-01-21T15:34:07.879Z,43.96
2019-01-21T15:36:52.024Z,45.31
2019-01-21T15:39:20.159Z,45.83
2019-01-21T15:41:47.708Z,46.51
2019-01-21T15:44:17.526Z,47.42
2019-01-21T15:46:51.287Z,47.85
2019-01-21T15:49:20.530Z,48.56
2019-01-21T15:52:04.187Z,49.22
2019-01-21T15:54:41.908Z,49.81
2019-01-21T15:57:12.567Z,50.45
2019-01-21T15:59:39.653Z,50.56
2019-01-21T16:02:07.444Z,50.46
2019-01-21T16:04:34.612Z,50.35
2019-01-21T16:07:06.084Z,50.83
2019-01-21T16:09:36.177Z,51.73
2019-01-21T16:12:19.019Z,51.82
2019-01-21T16:14:46.996Z,51.87
2019-01-21T16:17:18.693Z,52.25
2019-01-21T16:19:45.732Z,52.55
2019-01-21T16:22:13.706Z,52.57
2019-01-21T16:24:49.994Z,52.96
2019-01-21T16:27:17.670Z,53.21
2019-01-21T16:29:46.223Z,53.37
2019-01-21T16:32:13.209Z,53.47
2019-01-21T16:34:43.199Z,53.44
2019-01-21T16:37:12.065Z,53.46
2019-01-21T16:39:45.001Z,54.25
2019-01-21T16:42:12.634Z,54.35
2019-01-21T16:44:39.730Z,54.29
2019-01-21T16:47:06.729Z,53.99
2019-01-21T16:49:33.744Z,54.28
2019-01-21T16:52:00.761Z,54.40
2019-01-21T16:54:27.973Z,54.56
2019-01-21T16:56:54.920Z,54.59
2019-01-21T16:59:21.894Z,54.50
2019-01-21T17:01:48.858Z,54.68
2019-01-21T17:04:15.858Z,55.00
2019-01-21T17:06:42.887Z,55.05
2019-01-21T17:09:09.884Z,55.24
2019-01-21T17:11:36.836Z,55.37
2019-01-21T17:14:03.922Z,55.68
2019-01-21T17:16:30.886Z,55.78
2019-01-21T17:18:57.901Z,55.85
2019-01-21T17:21:27.050Z,56.02
2019-01-21T17:23:51.928Z,55.99
2019-01-21T17:26:18.881Z,55.99
2019-01-21T17:28:45.842Z,56.08
2019-01-21T17:31:12.856Z,56.32
2019-01-21T17:33:40.758Z,56.41
2019-01-21T17:36:07.763Z,56.54
2019-01-21T17:38:34.773Z,56.68
2019-01-21T17:41:01.898Z,56.68
2019-01-21T17:43:28.910Z,56.70
2019-01-21T17:45:55.891Z,56.76
2019-01-21T17:48:23.799Z,56.89
2019-01-21T17:50:50.767Z,57.08
2019-01-21T17:53:17.785Z,57.31
2019-01-21T17:55:45.165Z,57.55
2019-01-21T17:58:12.188Z,57.73
2019-01-21T18:00:39.118Z,57.72
2019-01-21T18:03:06.183Z,57.77
2019-01-21T18:05:33.143Z,57.99
2019-01-21T18:08:00.139Z,58.08
2019-01-21T18:10:27.267Z,58.11
2019-01-21T18:12:54.212Z,58.28
2019-01-21T18:15:21.242Z,58.63
2019-01-21T18:17:48.421Z,59.04
2019-01-21T18:20:15.393Z,59.26
2019-01-21T18:22:42.372Z,59.49
2019-01-21T18:25:09.439Z,59.65
2019-01-21T18:27:36.471Z,59.62
2019-01-21T18:30:03.490Z,59.79
2019-01-21T18:32:30.494Z,59.82
2019-01-21T18:34:57.505Z,60.01
2019-01-21T18:37:24.485Z,60.30
2019-01-21T18:39:51.766Z,60.66
2019-01-21T18:42:18.835Z,60.61
2019-01-21T18:44:45.790Z,60.99
2019-01-21T18:47:12.746Z,61.23
2019-01-21T18:49:39.731Z,61.12
2019-01-21T18:52:06.697Z,61.21
2019-01-21T18:54:33.778Z,61.70
2019-01-21T18:57:00.818Z,61.86
2019-01-21T18:59:27.780Z,61.91
2019-01-21T19:01:54.822Z,61.78
2019-01-21T19:04:21.793Z,61.68
2019-01-21T19:06:48.734Z,61.71
2019-01-21T19:09:15.782Z,61.74
2019-01-21T19:11:42.793Z,62.06
2019-01-21T19:14:10.758Z,62.66
2019-01-21T19:16:37.731Z,63.00
2019-01-21T19:19:04.684Z,63.05
2019-01-21T19:21:33.542Z,63.18
2019-01-21T19:24:00.519Z,63.29
2019-01-21T19:26:27.477Z,63.41
2019-01-21T19:28:55.104Z,63.47
2019-01-21T19:31:22.070Z,63.38
2019-01-21T19:33:49.831Z,63.52
2019-01-21T19:36:17.448Z,63.71
2019-01-21T19:38:45.480Z,63.70
2019-01-21T19:41:12.575Z,63.72
2019-01-21T19:43:39.715Z,63.80
2019-01-21T19:46:06.686Z,63.78
2019-01-21T19:48:33.633Z,64.06
2019-01-21T19:51:00.615Z,64.05
2019-01-21T19:53:27.551Z,64.09
2019-01-21T19:55:54.505Z,64.22
2019-01-21T19:58:21.499Z,64.50
2019-01-21T20:00:48.446Z,64.39
2019-01-21T20:03:15.397Z,64.63
2019-01-21T20:05:42.368Z,64.93
2019-01-21T20:08:09.315Z,65.11
2019-01-21T20:10:36.300Z,64.91
2019-01-21T20:13:03.301Z,64.70
2019-01-21T20:15:30.245Z,64.85
2019-01-21T20:17:57.310Z,64.92
2019-01-21T20:20:25.250Z,64.92
2019-01-21T20:22:57.476Z,65.29
2019-01-21T20:25:19.329Z,65.55
2019-01-21T20:27:46.421Z,65.54
2019-01-21T20:30:14.391Z,65.69
2019-01-21T20:32:42.387Z,65.82
2019-01-21T20:35:08.647Z,65.95
2019-01-21T20:37:36.350Z,66.06
2019-01-21T20:40:03.398Z,66.45
2019-01-21T20:42:30.513Z,66.65
2019-01-21T20:44:57.574Z,66.56
2019-01-21T20:47:29.826Z,66.58
2019-01-21T20:49:56.956Z,66.69
2019-01-21T20:52:24.163Z,66.71
2019-01-21T20:54:51.280Z,66.64
2019-01-21T20:57:18.594Z,66.54
2019-01-21T20:59:45.622Z,66.54
2019-01-21T21:02:12.644Z,66.60
2019-01-21T21:04:39.703Z,66.64
2019-01-21T21:07:06.863Z,66.85
2019-01-21T21:09:33.916Z,67.10
2019-01-21T21:12:00.994Z,67.36
2019-01-21T21:14:28.150Z,68.06
2019-01-21T21:16:55.606Z,67.94
2019-01-21T21:19:22.753Z,67.91
2019-01-21T21:21:49.780Z,67.96
2019-01-21T21:24:16.823Z,67.91
2019-01-21T21:26:43.850Z,67.96
2019-01-21T21:29:10.883Z,68.01
2019-01-21T21:31:37.903Z,67.96
2019-01-21T21:34:05.251Z,68.00
2019-01-21T21:36:32.366Z,67.92
2019-01-21T21:38:59.448Z,68.04
2019-01-21T21:41:26.697Z,68.27
2019-01-21T21:43:53.726Z,68.48
2019-01-21T21:46:20.757Z,68.49
2019-01-21T21:48:47.829Z,68.58
2019-01-21T21:51:14.887Z,68.73
2019-01-21T21:53:41.945Z,68.68
2019-01-21T21:56:08.971Z,68.72
2019-01-21T21:58:36.002Z,68.38
2019-01-21T22:01:03.032Z,68.60
2019-01-21T22:03:30.040Z,68.84
2019-01-21T22:05:57.088Z,68.84
2019-01-21T22:08:24.147Z,68.75
2019-01-21T22:10:51.202Z,68.79
2019-01-21T22:13:18.230Z,68.85
2019-01-21T22:15:45.245Z,68.90
2019-01-21T22:18:12.257Z,68.86
2019-01-21T22:20:39.326Z,68.71
2019-01-21T22:23:06.516Z,68.82
2019-01-21T22:25:33.769Z,68.93
2019-01-21T22:28:00.833Z,69.07
2019-01-21T22:30:28.514Z,69.25
2019-01-21T22:32:55.576Z,69.27
2019-01-21T22:35:22.615Z,69.48
2019-01-21T22:37:49.725Z,69.50
2019-01-21T22:40:16.806Z,69.33
2019-01-21T22:42:43.852Z,69.42
2019-01-21T22:45:10.909Z,69.21
2019-01-21T22:47:37.948Z,69.15
2019-01-21T22:50:05.066Z,68.96
2019-01-21T22:52:32.073Z,68.81
2019-01-21T22:54:59.108Z,69.04
2019-01-21T22:57:26.134Z,69.33
2019-01-21T22:59:53.207Z,69.40
2019-01-21T23:02:20.222Z,69.53
2019-01-21T23:04:47.238Z,69.40
2019-01-21T23:07:14.293Z,69.31
2019-01-21T23:09:41.328Z,69.08
2019-01-21T23:12:08.388Z,68.98
2019-01-21T23:14:35.487Z,68.88
2019-01-21T23:17:02.603Z,68.75
2019-01-21T23:19:30.564Z,68.50
2019-01-21T23:21:57.665Z,68.57
2019-01-21T23:24:24.698Z,68.55
2019-01-21T23:26:51.724Z,68.65
2019-01-21T23:29:18.747Z,68.74
2019-01-21T23:31:45.815Z,68.80
2019-01-21T23:34:12.852Z,68.84
2019-01-21T23:36:39.940Z,68.84
2019-01-21T23:39:06.969Z,68.97
2019-01-21T23:41:33.994Z,69.12
2019-01-21T23:44:01.036Z,68.80
2019-01-21T23:46:33.895Z,68.76
2019-01-21T23:49:00.925Z,68.89
2019-01-21T23:51:28.245Z,69.09
2019-01-21T23:53:55.271Z,68.91
2019-01-21T23:56:22.300Z,68.87
2019-01-21T23:58:49.341Z,68.77
